Time;durP1;ratioP1;P1;durP2;ratioP2;P2;SDS_P1;SDS_P2;PMS_P1;PMS_P2;Temp;Humidity;BMP_temperature;BMP_pressure;BME280_temperature;BME280_humidity;BME280_pressure;Samples;Min_cycle;Max_cycle;Signal;HPM_P1;HPM_P2
2022/01/15 00:00:59;;;;;;;16.20;5.33;;;;;;;4.25;68.89;101400.81;4980632;28;98184;-88
2022/01/15 00:03:24;;;;;;;18.67;6.13;;;;;;;4.21;69.29;101406.81;4980887;28;100069;-88
2022/01/15 00:05:50;;;;;;;16.83;5.37;;;;;;;4.12;69.30;101394.59;4970768;28;98098;-88
2022/01/15 00:08:15;;;;;;;19.30;5.70;;;;;;;3.81;69.30;101337.19;4977237;28;98854;-89
2022/01/15 00:10:41;;;;;;;15.87;5.70;;;;;;;4.18;69.51;101405.06;4976579;28;98120;-88
2022/01/15 00:13:18;;;;;;;19.30;5.00;;;;;;;4.20;69.54;101411.16;4971664;28;98340;-88
2022/01/15 00:15:50;;;;;;;14.00;4.43;;;;;;;4.07;69.50;101412.78;4972807;28;96846;-88
2022/01/15 00:18:17;;;;;;;14.27;4.32;;;;;;;4.02;69.67;101411.00;4980215;28;97409;-88
2022/01/15 00:20:43;;;;;;;16.87;5.50;;;;;;;3.99;69.87;101424.81;4968294;28;101509;-87
2022/01/15 00:23:08;;;;;;;14.20;4.47;;;;;;;3.90;69.76;101403.94;4986166;28;98026;-88
2022/01/15 00:25:34;;;;;;;14.40;4.90;;;;;;;3.93;69.61;101416.09;4957407;28;97193;-88
2022/01/15 00:28:01;;;;;;;12.63;5.53;;;;;;;3.95;69.56;101419.56;4986083;28;97218;-88
2022/01/15 00:30:28;;;;;;;14.00;4.57;;;;;;;3.74;69.38;101379.50;4973720;28;101093;-88
2022/01/15 00:32:54;;;;;;;14.87;4.70;;;;;;;3.92;69.71;101416.94;4960607;28;98472;-88
2022/01/15 00:35:21;;;;;;;15.73;4.70;;;;;;;3.84;69.65;101409.06;4969240;28;97279;-88
2022/01/15 00:37:47;;;;;;;18.57;5.83;;;;;;;3.66;69.53;101380.28;4970591;28;97162;-88
2022/01/15 00:40:15;;;;;;;20.97;6.57;;;;;;;3.78;69.99;101412.47;4971143;28;98615;-88
2022/01/15 00:42:41;;;;;;;18.43;5.60;;;;;;;3.83;69.84;101412.50;4965118;28;99635;-88
2022/01/15 00:45:13;;;;;;;19.40;5.70;;;;;;;3.79;69.64;101406.41;4958651;28;96983;-88
2022/01/15 00:47:40;;;;;;;20.60;5.50;;;;;;;3.73;69.62;101398.56;4974768;28;97131;-88
2022/01/15 00:50:06;;;;;;;21.37;6.23;;;;;;;3.81;69.45;101407.31;4937835;28;101277;-88
2022/01/15 00:52:32;;;;;;;24.27;6.40;;;;;;;3.76;69.71;101408.97;4999492;28;100293;-88
2022/01/15 00:54:58;;;;;;;15.77;4.93;;;;;;;3.65;69.46;101368.16;4971788;28;96849;-88
2022/01/15 00:57:24;;;;;;;14.73;5.00;;;;;;;3.80;69.51;101407.28;4981791;28;98917;-88
2022/01/15 00:59:50;;;;;;;21.13;6.50;;;;;;;3.57;69.82;101371.53;4970494;28;101116;-88
2022/01/15 01:02:16;;;;;;;15.07;5.40;;;;;;;3.67;69.54;101395.03;4931597;28;101690;-90
2022/01/15 01:04:42;;;;;;;18.93;6.57;;;;;;;3.62;69.40;101375.06;4968152;28;96837;-88
2022/01/15 01:07:08;;;;;;;18.07;5.70;;;;;;;3.58;69.68;101381.06;4953695;28;97241;-88
2022/01/15 01:23:03;;;;;;;23.50;6.27;;;;;;;3.67;69.33;101398.50;4949770;28;101123;-88
2022/01/15 01:25:39;;;;;;;17.20;5.37;;;;;;;3.67;68.80;101397.63;4971437;28;97111;-88
2022/01/15 01:28:11;;;;;;;19.60;5.23;;;;;;;3.70;69.14;101406.31;4985759;28;97344;-88
2022/01/15 01:30:47;;;;;;;22.23;6.33;;;;;;;3.56;68.89;101390.56;4981452;28;98060;-88
2022/01/15 01:36:09;;;;;;;19.03;5.63;;;;;;;3.43;69.16;101396.44;4979450;28;96862;-88
2022/01/15 01:38:41;;;;;;;18.20;5.83;;;;;;;3.46;69.23;101411.19;4988507;28;96819;-88
2022/01/15 01:41:14;;;;;;;24.47;7.67;;;;;;;3.49;69.07;101406.03;4990031;28;99093;-88
2022/01/15 01:43:45;;;;;;;22.60;5.90;;;;;;;3.40;69.16;101393.81;4961401;28;100232;-88
2022/01/15 01:48:50;;;;;;;16.73;5.10;;;;;;;3.42;68.90;101420.69;4977434;28;97367;-88
2022/01/15 01:51:33;;;;;;;20.17;4.70;;;;;;;3.21;69.09;101379.75;4988066;28;101336;-88
2022/01/15 01:54:01;;;;;;;31.70;7.13;;;;;;;3.46;69.34;101425.06;4979384;28;101428;-88
2022/01/15 01:56:27;;;;;;;23.50;5.57;;;;;;;3.38;69.24;101413.72;4983997;28;97083;-88
2022/01/15 01:58:53;;;;;;;19.80;5.47;;;;;;;3.33;69.69;101415.38;4975795;28;96980;-87
2022/01/15 02:01:19;;;;;;;16.77;4.33;;;;;;;3.34;69.09;101420.56;4980203;28;101143;-90
2022/01/15 02:03:44;;;;;;;16.17;5.13;;;;;;;3.25;69.25;101391.03;4977435;28;101372;-87
2022/01/15 02:06:11;;;;;;;18.67;5.47;;;;;;;3.22;69.29;101397.06;4952120;28;97177;-88
2022/01/15 02:08:37;;;;;;;19.87;5.40;;;;;;;3.02;69.47;101364.78;4979464;28;96799;-88
2022/01/15 02:11:05;;;;;;;11.83;4.33;;;;;;;3.23;68.96;101400.50;4969748;28;100862;-88
2022/01/15 02:13:32;;;;;;;15.23;5.10;;;;;;;3.27;69.05;101418.75;4965842;28;101267;-88
2022/01/15 02:16:01;;;;;;;16.03;4.97;;;;;;;3.25;69.05;101415.25;4993186;28;97224;-88
2022/01/15 02:18:27;;;;;;;14.67;4.83;;;;;;;3.22;69.00;101416.94;4972027;28;97484;-88
2022/01/15 02:23:35;;;;;;;19.30;5.33;;;;;;;3.18;69.06;101411.72;4987848;28;98031;-88
2022/01/15 02:26:07;;;;;;;21.43;5.70;;;;;;;3.20;68.69;101410.84;4947884;28;97245;-88
2022/01/15 02:28:35;;;;;;;22.15;5.63;;;;;;;3.08;68.84;101389.06;4988689;28;96786;-88
2022/01/15 02:31:14;;;;;;;19.57;5.37;;;;;;;3.17;69.17;101409.09;4978247;28;100617;-89
2022/01/15 02:33:42;;;;;;;16.37;4.40;;;;;;;2.94;69.40;101370.75;4976686;28;99082;-88
2022/01/15 02:36:10;;;;;;;18.37;4.90;;;;;;;3.21;69.14;101410.88;4972184;28;96816;-88
2022/01/15 02:38:37;;;;;;;23.03;6.20;;;;;;;3.17;69.03;101399.59;4972982;28;96809;-88
2022/01/15 02:41:03;;;;;;;14.47;4.90;;;;;;;3.23;69.11;101416.09;4957708;28;101508;-88
2022/01/15 02:43:32;;;;;;;18.97;4.60;;;;;;;3.23;68.66;101405.72;4968683;28;100144;-89
2022/01/15 02:46:08;;;;;;;21.17;5.10;;;;;;;3.22;69.04;101398.78;4975515;28;96849;-89
2022/01/15 02:48:33;;;;;;;17.73;5.20;;;;;;;3.15;68.98;101396.09;4990326;28;96774;-87
2022/01/15 02:50:59;;;;;;;20.47;4.97;;;;;;;3.21;69.17;101421.28;4967321;28;98306;-88
2022/01/15 02:53:25;;;;;;;17.03;4.30;;;;;;;2.90;69.10;101368.06;4966641;28;100170;-88
2022/01/15 02:55:52;;;;;;;18.27;4.40;;;;;;;3.21;68.79;101416.09;4977388;28;97096;-88
2022/01/15 02:58:19;;;;;;;21.83;4.83;;;;;;;2.98;69.18;101378.56;4962232;28;96847;-89
2022/01/15 03:00:46;;;;;;;19.07;4.30;;;;;;;3.11;69.12;101407.31;4988735;28;100554;-88
2022/01/15 03:03:12;;;;;;;18.70;4.27;;;;;;;3.08;68.93;101401.19;4961699;28;101341;-88
2022/01/15 03:05:38;;;;;;;15.07;4.27;;;;;;;2.85;68.85;101356.75;4975972;28;97684;-88
2022/01/15 03:08:04;;;;;;;18.20;4.47;;;;;;;2.84;68.65;101352.44;4988644;28;96906;-88
2022/01/15 03:10:29;;;;;;;20.73;4.97;;;;;;;3.11;69.03;101399.53;4961162;28;101637;-88
2022/01/15 03:12:57;;;;;;;13.10;4.50;;;;;;;3.04;68.87;101400.28;4987045;28;98069;-89
2022/01/15 03:15:23;;;;;;;18.47;5.80;;;;;;;2.80;68.85;101355.84;5007312;28;96909;-90
2022/01/15 03:17:49;;;;;;;21.40;5.10;;;;;;;3.09;69.13;101409.00;4962397;28;97121;-88
2022/01/15 03:20:17;;;;;;;19.57;5.50;;;;;;;2.95;69.16;101375.06;4970168;28;100880;-88
2022/01/15 03:22:43;;;;;;;16.10;5.07;;;;;;;3.11;69.39;101406.41;4979925;28;101008;-88
2022/01/15 03:25:10;;;;;;;23.33;6.10;;;;;;;3.12;69.24;101403.84;4942463;28;97127;-89
2022/01/15 03:27:36;;;;;;;16.20;6.30;;;;;;;2.85;69.53;101372.31;4997827;28;97346;-89
2022/01/15 03:30:04;;;;;;;17.90;6.43;;;;;;;3.03;69.22;101382.13;4971403;28;101281;-87
2022/01/15 03:32:29;;;;;;;15.50;5.63;;;;;;;2.78;69.81;101353.22;4971839;28;101504;-88
2022/01/15 03:34:56;;;;;;;18.50;7.87;;;;;;;2.88;69.75;101360.28;4959161;28;96711;-88
2022/01/15 03:37:22;;;;;;;16.97;6.10;;;;;;;3.10;69.62;101391.72;4951601;28;96878;-88
2022/01/15 03:39:48;;;;;;;16.90;6.70;;;;;;;3.08;69.31;101399.44;4980188;28;100862;-88
2022/01/15 03:42:13;;;;;;;18.63;7.00;;;;;;;3.06;69.33;101408.97;4978284;28;101394;-89
2022/01/15 03:44:40;;;;;;;18.10;6.37;;;;;;;2.91;69.24;101380.22;4961179;28;97173;-89
2022/01/15 03:47:06;;;;;;;22.93;6.70;;;;;;;3.07;69.32;101415.03;4973195;28;96904;-88
2022/01/15 03:49:31;;;;;;;20.20;7.00;;;;;;;3.06;69.39;101398.59;4987365;28;101607;-89
2022/01/15 03:51:57;;;;;;;19.57;7.30;;;;;;;2.91;69.04;101362.94;4967769;28;98996;-88
2022/01/15 03:54:23;;;;;;;18.27;7.77;;;;;;;3.13;69.26;101399.53;4981866;28;97103;-88
2022/01/15 03:56:48;;;;;;;23.57;7.23;;;;;;;3.10;69.31;101396.91;4934437;28;96930;-87
2022/01/15 03:59:14;;;;;;;28.60;7.43;;;;;;;3.08;68.92;101383.03;4977789;28;101828;-89
2022/01/15 04:01:39;;;;;;;19.40;8.40;;;;;;;3.07;69.24;101394.25;4972808;28;100064;-88
2022/01/15 04:04:05;;;;;;;24.10;7.93;;;;;;;3.00;69.21;101393.31;4980588;28;97820;-88
2022/01/15 04:06:30;;;;;;;30.60;9.53;;;;;;;3.03;69.36;101406.31;4980175;28;96854;-88
2022/01/15 04:08:56;;;;;;;24.13;8.20;;;;;;;2.98;69.53;101409.69;4985318;28;101379;-89
2022/01/15 04:11:22;;;;;;;25.23;8.20;;;;;;;2.87;69.66;101394.84;4967663;28;100953;-88
2022/01/15 04:13:47;;;;;;;20.03;8.63;;;;;;;3.00;69.40;101427.03;4964824;28;97157;-89
2022/01/15 04:16:13;;;;;;;22.83;7.87;;;;;;;2.92;69.57;101419.13;4966560;28;97226;-88
2022/01/15 04:18:41;;;;;;;23.93;8.60;;;;;;;2.95;69.57;101431.28;4966989;28;101199;-88
2022/01/15 04:21:09;;;;;;;20.17;8.97;;;;;;;2.88;69.67;101417.34;4974828;28;98112;-88
2022/01/15 04:23:36;;;;;;;26.83;10.23;;;;;;;2.95;69.37;101428.69;4979442;28;97150;-89
2022/01/15 04:26:03;;;;;;;23.50;9.07;;;;;;;2.83;69.42;101415.53;4974801;28;96851;-88
2022/01/15 04:28:29;;;;;;;25.30;9.20;;;;;;;2.87;69.67;101433.75;4954183;28;101408;-89
2022/01/15 04:30:55;;;;;;;17.17;8.50;;;;;;;2.85;69.64;101422.50;4945935;28;100894;-88
2022/01/15 04:33:20;;;;;;;25.13;9.30;;;;;;;2.95;69.52;101439.06;4981467;28;96967;-88
2022/01/15 04:35:46;;;;;;;24.80;10.13;;;;;;;2.91;69.63;101432.97;4954315;28;97127;-88
2022/01/15 04:38:13;;;;;;;24.87;9.47;;;;;;;2.90;69.81;101427.72;4959558;28;97589;-91
2022/01/15 04:40:39;;;;;;;24.40;9.57;;;;;;;2.70;69.44;101383.34;4939917;28;100622;-89
2022/01/15 04:43:04;;;;;;;33.53;10.80;;;;;;;2.97;69.49;101429.59;4957469;28;96689;-89
2022/01/15 04:45:31;;;;;;;22.57;10.00;;;;;;;3.04;70.03;101433.13;4961081;28;96953;-88
2022/01/15 04:47:56;;;;;;;26.10;10.23;;;;;;;3.02;70.12;101429.63;4961997;28;101239;-90
2022/01/15 04:50:22;;;;;;;27.60;10.47;;;;;;;3.17;70.33;101438.53;4966150;28;101047;-88
2022/01/15 04:52:48;;;;;;;26.47;9.27;;;;;;;3.12;70.63;101431.53;4963910;28;97427;-89
2022/01/15 04:55:14;;;;;;;27.47;10.07;;;;;;;3.17;70.81;101438.53;4976978;28;98326;-88
2022/01/15 04:57:41;;;;;;;21.97;9.40;;;;;;;3.24;70.88;101436.88;4958776;28;101368;-89
2022/01/15 05:00:10;;;;;;;25.67;9.67;;;;;;;3.21;71.03;101438.56;4971370;28;101406;-88
2022/01/15 05:02:36;;;;;;;23.27;10.03;;;;;;;3.25;71.13;101445.53;4952435;28;96802;-90
2022/01/15 05:05:02;;;;;;;27.53;9.77;;;;;;;3.26;71.29;101442.06;4948660;28;96921;-88
2022/01/15 05:07:29;;;;;;;26.00;9.83;;;;;;;3.25;71.08;101442.94;4973518;28;101289;-91
2022/01/15 05:09:55;;;;;;;22.90;10.13;;;;;;;3.23;71.50;101435.16;4993398;28;98484;-88
2022/01/15 05:12:31;;;;;;;26.33;11.43;;;;;;;3.29;71.15;101448.22;4980093;28;97350;-88
2022/01/15 05:14:56;;;;;;;25.83;10.63;;;;;;;3.31;71.33;101437.81;4955938;28;97166;-89
2022/01/15 05:17:22;;;;;;;21.57;10.00;;;;;;;3.29;71.56;101443.00;4978131;28;101605;-89
2022/01/15 05:19:48;;;;;;;23.60;10.47;;;;;;;3.30;71.22;101447.34;4976385;28;101218;-89
2022/01/15 05:22:13;;;;;;;24.27;10.03;;;;;;;3.30;71.42;101447.34;4963210;28;96717;-88
2022/01/15 05:24:39;;;;;;;20.50;9.60;;;;;;;2.97;71.46;101389.78;4984299;28;97521;-88
2022/01/15 05:27:04;;;;;;;22.60;8.30;;;;;;;3.33;71.74;101449.13;4965420;28;99759;-88
2022/01/15 05:29:30;;;;;;;24.13;9.70;;;;;;;3.26;71.36;101437.78;4967496;28;101095;-89
2022/01/15 05:31:56;;;;;;;20.33;8.80;;;;;;;3.32;71.55;101453.44;4985412;28;97726;-88
2022/01/15 05:34:21;;;;;;;21.60;8.87;;;;;;;3.33;71.51;101447.38;4968767;28;97170;-89
2022/01/15 05:36:47;;;;;;;20.43;8.17;;;;;;;3.33;71.46;101446.50;4965394;28;100983;-88
2022/01/15 05:39:13;;;;;;;21.40;9.33;;;;;;;3.27;71.59;101431.72;4970541;28;98384;-89
2022/01/15 05:41:39;;;;;;;23.63;8.47;;;;;;;3.31;71.64;101441.28;4982872;28;97011;-88
2022/01/15 05:44:04;;;;;;;25.73;9.70;;;;;;;3.32;71.60;101442.19;4987796;28;96923;-90
2022/01/15 05:46:31;;;;;;;20.43;9.00;;;;;;;3.30;71.64;101447.34;4982908;28;101583;-88
2022/01/15 05:48:58;;;;;;;18.37;10.03;;;;;;;3.18;71.83;101426.41;4968283;28;101797;-89
2022/01/15 05:51:29;;;;;;;16.43;8.83;;;;;;;3.34;71.81;101441.31;4969930;28;96961;-88
2022/01/15 05:53:58;;;;;;;18.98;9.52;;;;;;;3.36;71.92;101452.63;4953341;28;96921;-89
2022/01/15 05:56:23;;;;;;;25.30;8.87;;;;;;;3.37;71.77;101449.19;4975450;28;101203;-89
2022/01/15 05:58:49;;;;;;;19.93;8.57;;;;;;;3.31;71.92;101448.22;4963679;28;100706;-88
2022/01/15 06:01:15;;;;;;;21.80;8.07;;;;;;;3.35;71.81;101452.63;4961008;28;97042;-88
2022/01/15 06:03:40;;;;;;;25.80;10.10;;;;;;;3.32;71.82;101448.25;4948638;28;96936;-88
2022/01/15 06:06:06;;;;;;;26.53;10.57;;;;;;;3.36;71.98;101456.94;4967320;28;100645;-88
2022/01/15 06:08:32;;;;;;;29.10;9.03;;;;;;;3.40;72.14;101458.72;4962777;28;100732;-87
2022/01/15 06:10:57;;;;;;;20.70;8.97;;;;;;;3.04;71.75;101405.47;4976789;28;97231;-88
2022/01/15 06:13:23;;;;;;;21.33;9.83;;;;;;;3.40;71.81;101463.91;4965483;28;96993;-88
2022/01/15 06:15:49;;;;;;;28.90;10.30;;;;;;;3.38;71.93;101463.03;4962957;28;100098;-89
2022/01/15 06:18:14;;;;;;;26.30;10.23;;;;;;;3.45;71.84;101467.44;4957317;28;101676;-89
2022/01/15 06:20:40;;;;;;;28.17;9.57;;;;;;;3.37;71.61;101456.97;4970029;28;96898;-89
2022/01/15 06:23:05;;;;;;;24.10;10.37;;;;;;;3.47;71.62;101470.06;4979835;28;98644;-89
2022/01/15 06:25:31;;;;;;;22.20;10.27;;;;;;;3.37;71.95;101466.47;4970345;28;99328;-89
2022/01/15 06:27:56;;;;;;;28.03;9.93;;;;;;;3.33;71.77;101449.13;4976189;28;98222;-89
2022/01/15 06:30:22;;;;;;;24.50;9.83;;;;;;;3.40;71.96;101462.22;4985874;28;96686;-88
2022/01/15 06:32:48;;;;;;;25.27;9.33;;;;;;;3.39;71.91;101459.56;4973010;28;96827;-88
2022/01/15 06:35:14;;;;;;;25.47;10.30;;;;;;;3.34;71.84;101456.03;4949635;28;99124;-88
2022/01/15 06:37:40;;;;;;;35.20;11.53;;;;;;;3.34;72.08;101462.09;4975869;28;101280;-88
2022/01/15 06:40:07;;;;;;;25.60;10.00;;;;;;;3.34;71.91;101464.69;4967663;28;97046;-89
2022/01/15 06:42:33;;;;;;;22.77;10.07;;;;;;;3.39;71.92;101457.84;4950451;28;97302;-89
2022/01/15 06:44:59;;;;;;;24.70;10.47;;;;;;;3.25;72.09;101436.03;4978557;28;100494;-89
2022/01/15 06:47:26;;;;;;;30.07;10.27;;;;;;;3.33;71.94;101455.16;4975282;28;101145;-89
2022/01/15 06:49:52;;;;;;;24.90;11.33;;;;;;;3.43;72.03;101463.94;4969844;28;97324;-86
2022/01/15 06:52:18;;;;;;;24.83;9.17;;;;;;;3.46;71.87;101465.72;4972433;28;96934;-88
2022/01/15 06:54:43;;;;;;;20.63;8.90;;;;;;;3.42;71.86;101467.41;4988271;28;98497;-86
2022/01/15 06:57:09;;;;;;;29.07;10.13;;;;;;;3.42;71.86;101462.22;4970977;28;100847;-86
2022/01/15 06:59:34;;;;;;;39.00;11.57;;;;;;;3.35;71.91;101452.63;4971300;28;98200;-85
2022/01/15 07:02:00;;;;;;;34.70;9.97;;;;;;;3.31;71.84;101456.88;4987206;28;97195;-85
2022/01/15 07:04:25;;;;;;;21.80;9.00;;;;;;;3.17;71.49;101424.66;4971492;28;97578;-86
2022/01/15 07:06:51;;;;;;;24.17;9.23;;;;;;;3.42;71.87;101476.91;4968917;28;97645;-85
2022/01/15 07:09:16;;;;;;;27.27;10.30;;;;;;;3.43;71.47;101482.13;4974514;28;97356;-85
2022/01/15 07:11:42;;;;;;;36.47;11.37;;;;;;;3.39;71.76;101480.34;4972364;28;97150;-86
2022/01/15 07:14:07;;;;;;;25.77;10.53;;;;;;;3.43;71.15;101468.25;4985960;28;101276;-86
2022/01/15 07:16:34;;;;;;;33.50;9.23;;;;;;;3.37;71.72;101462.16;4970118;28;101562;-85
2022/01/15 07:19:00;;;;;;;27.37;8.50;;;;;;;3.42;71.63;101475.19;4970177;28;98035;-85
2022/01/15 07:21:26;;;;;;;24.70;8.77;;;;;;;3.52;71.43;101482.25;4956910;28;97398;-87
2022/01/15 07:23:51;;;;;;;27.63;9.60;;;;;;;3.56;71.05;101484.03;4966247;28;99729;-86
2022/01/15 07:26:17;;;;;;;31.30;9.27;;;;;;;3.56;70.81;101484.03;4948155;28;101639;-85
2022/01/15 07:28:43;;;;;;;21.67;8.67;;;;;;;3.57;71.25;101484.91;4948575;28;97370;-87
2022/01/15 07:31:08;;;;;;;25.50;8.80;;;;;;;3.48;70.98;101472.66;4977079;28;97375;-85
2022/01/15 07:33:34;;;;;;;24.10;8.30;;;;;;;3.39;71.32;101473.41;4985447;28;101365;-86
2022/01/15 07:36:00;;;;;;;24.33;8.23;;;;;;;3.51;71.33;101480.50;4979759;28;97331;-87
2022/01/15 07:38:25;;;;;;;22.87;9.63;;;;;;;3.51;70.82;101483.09;4937848;28;97591;-86
2022/01/15 07:40:55;;;;;;;26.53;8.57;;;;;;;3.45;70.93;101470.03;4971379;28;98641;-86
2022/01/15 07:43:21;;;;;;;22.70;9.67;;;;;;;3.37;70.95;101456.97;4973328;28;101302;-87
2022/01/15 07:45:46;;;;;;;25.33;8.83;;;;;;;3.40;71.04;101466.50;4951159;28;97202;-86
2022/01/15 07:48:12;;;;;;;27.13;9.97;;;;;;;3.54;70.92;101505.63;4972867;28;96911;-86
2022/01/15 07:50:38;;;;;;;32.73;10.90;;;;;;;3.61;70.68;101495.38;4957979;28;97365;-85
2022/01/15 07:53:03;;;;;;;32.97;8.83;;;;;;;3.65;70.82;101503.19;4975881;28;99823;-86
2022/01/15 07:55:30;;;;;;;25.37;9.37;;;;;;;3.65;70.93;101495.41;4954671;28;101250;-85
2022/01/15 07:57:55;;;;;;;25.87;9.03;;;;;;;3.36;70.70;101457.81;4974380;28;97228;-87
2022/01/15 08:00:21;;;;;;;25.83;9.67;;;;;;;3.65;70.72;101504.06;4971576;28;97408;-87
2022/01/15 08:02:46;;;;;;;28.07;9.43;;;;;;;3.61;70.63;101502.28;4977079;28;98284;-87
2022/01/15 08:05:12;;;;;;;25.80;9.77;;;;;;;3.64;70.42;101528.28;4979947;28;97830;-85
2022/01/15 08:07:40;;;;;;;26.80;9.57;;;;;;;3.59;70.60;101524.75;4983103;28;96852;-86
2022/01/15 08:10:07;;;;;;;24.57;9.30;;;;;;;3.40;70.52;101466.50;4972214;28;97363;-87
2022/01/15 08:12:33;;;;;;;28.13;9.47;;;;;;;3.66;70.24;101517.91;4986927;28;101152;-87
2022/01/15 08:14:59;;;;;;;24.57;9.43;;;;;;;3.62;70.56;101502.28;4969561;28;97568;-87
2022/01/15 08:17:24;;;;;;;28.07;10.27;;;;;;;3.74;70.34;101519.75;4969957;28;97167;-86
2022/01/15 08:19:50;;;;;;;33.40;10.03;;;;;;;3.75;69.77;101508.53;4956874;28;97029;-87
2022/01/15 08:22:15;;;;;;;27.53;8.87;;;;;;;3.77;70.52;101519.78;4981445;28;101959;-88
2022/01/15 08:24:41;;;;;;;30.80;10.00;;;;;;;3.78;70.09;101521.56;4976443;28;100763;-87
2022/01/15 08:27:07;;;;;;;33.80;10.60;;;;;;;3.81;70.60;101524.19;4950394;28;97697;-85
2022/01/15 08:29:32;;;;;;;30.97;9.77;;;;;;;3.81;70.52;101525.91;4960218;28;97247;-89
2022/01/15 08:31:58;;;;;;;30.43;11.10;;;;;;;3.78;70.26;101536.25;4962769;28;101195;-86
2022/01/15 08:34:24;;;;;;;31.73;11.23;;;;;;;3.86;70.41;101537.22;4962039;28;101112;-87
2022/01/15 08:36:50;;;;;;;33.57;11.07;;;;;;;3.79;70.47;101517.22;4946532;28;96809;-87
2022/01/15 08:39:16;;;;;;;27.37;10.03;;;;;;;3.91;70.22;101534.69;4964118;28;97709;-87
2022/01/15 08:41:48;;;;;;;30.00;9.97;;;;;;;3.81;70.42;101508.59;4977305;28;100152;-87
2022/01/15 08:44:15;;;;;;;28.38;10.65;;;;;;;3.93;70.00;101533.00;4950577;28;101159;-85
2022/01/15 08:46:40;;;;;;;31.50;11.60;;;;;;;3.85;70.02;101523.38;4943592;28;97365;-86
2022/01/15 08:49:06;;;;;;;30.60;11.93;;;;;;;3.94;70.03;101535.59;4977247;28;96879;-86
2022/01/15 08:51:31;;;;;;;37.47;12.23;;;;;;;3.81;70.31;101513.81;4970405;28;97713;-87
2022/01/15 08:53:57;;;;;;;32.57;11.27;;;;;;;4.02;70.13;101540.91;4985138;28;100917;-86
2022/01/15 08:56:23;;;;;;;33.33;11.77;;;;;;;4.00;70.04;101545.19;4968279;28;97821;-86
2022/01/15 08:58:48;;;;;;;29.17;10.63;;;;;;;3.69;69.98;101494.56;4972865;28;97325;-86
2022/01/15 09:01:15;;;;;;;27.90;11.07;;;;;;;4.02;70.14;101546.09;4972493;28;101353;-86
2022/01/15 09:03:41;;;;;;;35.77;12.17;;;;;;;3.86;70.08;101524.22;4970439;28;101530;-86
2022/01/15 09:06:07;;;;;;;30.27;10.80;;;;;;;3.94;70.25;101520.00;4937871;28;97245;-86
2022/01/15 09:08:33;;;;;;;28.57;10.77;;;;;;;4.09;70.00;101532.31;4946769;28;97025;-86
2022/01/15 09:11:02;;;;;;;34.07;10.90;;;;;;;4.07;69.95;101529.72;4969565;28;101637;-89
2022/01/15 09:13:29;;;;;;;28.30;10.30;;;;;;;4.18;69.73;101547.16;4960379;28;100924;-88
2022/01/15 09:15:56;;;;;;;26.13;10.00;;;;;;;4.14;69.98;101553.16;4970050;28;97264;-87
2022/01/15 09:18:21;;;;;;;24.63;9.57;;;;;;;4.14;70.12;101560.97;4971304;28;97398;-89
2022/01/15 09:20:47;;;;;;;25.07;9.07;;;;;;;4.21;69.72;101563.63;4972736;28;101319;-88
2022/01/15 09:23:13;;;;;;;25.57;9.40;;;;;;;4.17;69.68;101558.41;4986611;28;101186;-88
2022/01/15 09:25:39;;;;;;;26.43;9.63;;;;;;;4.21;70.23;101567.97;4970731;28;96863;-88
2022/01/15 09:30:49;;;;;;;27.73;9.90;;;;;;;4.21;69.80;101562.78;4984280;28;100724;-89
2022/01/15 09:33:15;;;;;;;19.43;9.27;;;;;;;4.27;69.69;101579.31;4976384;28;101748;-85
2022/01/15 09:35:41;;;;;;;25.77;10.43;;;;;;;4.05;69.41;101538.34;4968464;28;96816;-86
2022/01/15 09:38:07;;;;;;;25.07;10.23;;;;;;;4.17;69.62;101542.81;4973938;28;97241;-89
2022/01/15 09:40:33;;;;;;;22.30;9.70;;;;;;;4.25;69.52;101562.84;4971103;28;101058;-87
2022/01/15 09:42:58;;;;;;;22.37;9.80;;;;;;;4.23;69.62;101542.88;4960387;28;101294;-85
2022/01/15 09:45:24;;;;;;;26.77;9.67;;;;;;;4.23;70.01;101548.94;4980141;28;97310;-86
2022/01/15 09:48:00;;;;;;;23.03;10.90;;;;;;;4.38;69.32;101537.84;4969520;28;97363;-88
2022/01/15 09:50:28;;;;;;;18.10;7.87;;;;;;;4.28;69.44;101536.88;4982360;28;97544;-89
2022/01/15 09:52:55;;;;;;;26.17;9.83;;;;;;;4.41;69.90;101555.19;4983023;28;101569;-86
2022/01/15 09:55:21;;;;;;;24.93;8.90;;;;;;;4.32;69.52;101523.03;4979285;28;97396;-86
2022/01/15 09:57:47;;;;;;;27.60;9.87;;;;;;;4.48;68.86;101546.59;4945669;28;97556;-86
2022/01/15 10:00:15;;;;;;;20.20;8.50;;;;;;;4.50;69.17;101556.16;4985501;28;101234;-94
2022/01/15 10:02:42;;;;;;;17.57;8.37;;;;;;;4.32;69.24;101529.97;4973434;28;98209;-87
2022/01/15 10:05:09;;;;;;;24.10;8.80;;;;;;;4.59;68.88;101547.59;4967827;28;96873;-84
2022/01/15 10:07:34;;;;;;;24.97;9.03;;;;;;;4.47;69.13;101532.72;4935856;28;97261;-85
2022/01/15 10:10:14;;;;;;;25.97;9.37;;;;;;;4.45;69.43;101533.56;4967592;28;101275;-84
2022/01/15 10:12:42;;;;;;;24.73;10.83;;;;;;;4.33;69.48;101529.09;4984596;28;98348;-84
2022/01/15 10:15:11;;;;;;;22.27;9.57;;;;;;;4.52;69.31;101556.19;4959138;28;97338;-84
2022/01/15 10:17:38;;;;;;;28.90;10.13;;;;;;;4.51;68.89;101557.06;4980509;28;97030;-85
2022/01/15 10:20:07;;;;;;;27.10;11.53;;;;;;;4.48;68.90;101546.59;4943241;28;98552;-85
2022/01/15 10:22:33;;;;;;;28.67;9.40;;;;;;;4.49;69.00;101551.84;4976093;28;98968;-87
2022/01/15 10:25:01;;;;;;;35.33;10.07;;;;;;;4.57;68.92;101551.91;4958597;28;96764;-87
2022/01/15 10:27:30;;;;;;;27.57;8.53;;;;;;;4.70;68.75;101561.56;4974624;28;96925;-89
2022/01/15 10:29:59;;;;;;;25.27;9.57;;;;;;;4.68;68.93;101565.00;4965488;28;99812;-84
2022/01/15 10:32:26;;;;;;;24.63;9.93;;;;;;;4.53;69.18;101538.00;4975120;28;101407;-83
2022/01/15 10:34:52;;;;;;;23.93;9.13;;;;;;;4.62;69.14;101559.75;4978682;28;97319;-83
2022/01/15 10:37:24;;;;;;;27.97;9.00;;;;;;;4.64;69.27;101564.13;4985279;28;97118;-86
2022/01/15 10:40:04;;;;;;;24.63;8.98;;;;;;;4.60;69.10;101551.94;4979859;28;101365;-84
2022/01/15 10:42:30;;;;;;;27.00;8.43;;;;;;;4.54;69.00;101537.16;4965436;28;98512;-84
2022/01/15 10:44:58;;;;;;;25.90;8.17;;;;;;;4.37;69.15;101512.72;4975057;28;97610;-85
2022/01/15 10:47:28;;;;;;;21.07;8.93;;;;;;;4.58;68.75;101556.25;4973845;28;97357;-86
2022/01/15 10:50:02;;;;;;;25.00;8.10;;;;;;;4.49;68.82;101543.16;4977339;28;101368;-87
2022/01/15 10:52:28;;;;;;;27.97;8.27;;;;;;;4.52;69.31;101544.06;4976552;28;100853;-89
2022/01/15 10:55:10;;;;;;;21.07;7.73;;;;;;;4.61;69.18;101566.69;4994198;28;98002;-88
2022/01/15 10:57:40;;;;;;;20.92;7.97;;;;;;;4.58;69.36;101547.59;4988776;28;96926;-91
2022/01/15 11:00:10;;;;;;;28.90;9.47;;;;;;;4.64;69.55;101558.91;4972733;28;102286;-91
2022/01/15 11:02:36;;;;;;;25.80;8.70;;;;;;;4.49;69.31;101524.97;4987750;28;101383;-91
2022/01/15 11:05:03;;;;;;;22.80;9.23;;;;;;;4.63;69.43;101551.13;4978804;28;96756;-91
2022/01/15 11:07:35;;;;;;;25.90;8.93;;;;;;;4.61;69.17;101538.06;4979363;28;98150;-93
2022/01/15 11:10:02;;;;;;;21.95;7.38;;;;;;;4.71;69.18;101545.13;4974400;28;101426;-87
2022/01/15 11:12:28;;;;;;;23.10;9.40;;;;;;;4.66;68.85;101533.78;4980724;28;101396;-85
2022/01/15 11:14:54;;;;;;;28.03;9.30;;;;;;;4.70;69.15;101524.28;4983053;28;97421;-85
2022/01/15 11:17:19;;;;;;;27.00;9.23;;;;;;;4.82;68.74;101527.00;4980068;28;97266;-84
2022/01/15 11:19:45;;;;;;;22.07;8.20;;;;;;;4.86;69.27;101533.97;4982732;28;101710;-84
2022/01/15 11:22:11;;;;;;;22.37;9.00;;;;;;;4.93;68.42;101529.69;4966596;28;97398;-87
2022/01/15 11:24:37;;;;;;;30.20;8.30;;;;;;;5.00;68.50;101531.47;4974062;28;96817;-87
2022/01/15 11:27:04;;;;;;;27.10;8.67;;;;;;;4.89;68.09;101522.72;4978480;28;97451;-88
2022/01/15 11:29:30;;;;;;;27.20;8.10;;;;;;;5.02;68.23;101542.78;4978083;28;98334;-87
2022/01/15 11:32:00;;;;;;;29.57;8.93;;;;;;;5.06;68.11;101515.94;4981660;28;101555;-88
2022/01/15 11:34:26;;;;;;;25.43;7.73;;;;;;;5.18;68.10;101530.78;4969836;28;97102;-91
2022/01/15 11:36:52;;;;;;;28.73;8.30;;;;;;;5.16;68.03;101528.13;4972044;28;96779;-87
2022/01/15 11:39:23;;;;;;;20.40;7.20;;;;;;;5.31;68.00;101537.78;4969325;28;99146;-87
2022/01/15 11:41:53;;;;;;;28.15;9.05;;;;;;;5.28;67.30;101531.69;4955715;28;101271;-89
2022/01/15 11:44:38;;;;;;;23.20;8.43;;;;;;;5.29;67.54;101517.81;4983123;28;98860;-88